Map

Track Data

SID SEASON NUMBER BASIN SUBBASIN NAME ISO_TIME NATURE LAT LON WMO_WIND WMO_PRES WMO_AGENCY TRACK_TYPE DIST2LAND LANDFALL IFLAG USA_AGENCY USA_ATCF_ID USA_LAT USA_LON USA_RECORD USA_STATUS USA_WIND USA_PRES USA_SSHS USA_R34_NE USA_R34_SE USA_R34_SW USA_R34_NW USA_R50_NE USA_R50_SE USA_R50_SW USA_R50_NW USA_R64_NE USA_R64_SE USA_R64_SW USA_R64_NW USA_POCI USA_ROCI USA_RMW USA_EYE TOKYO_LAT TOKYO_LON TOKYO_GRADE TOKYO_WIND TOKYO_PRES TOKYO_R50_DIR TOKYO_R50_LONG TOKYO_R50_SHORT TOKYO_R30_DIR TOKYO_R30_LONG TOKYO_R30_SHORT TOKYO_LAND CMA_LAT CMA_LON CMA_CAT CMA_WIND CMA_PRES HKO_LAT HKO_LON HKO_CAT HKO_WIND HKO_PRES NEWDELHI_LAT NEWDELHI_LON NEWDELHI_GRADE NEWDELHI_WIND NEWDELHI_PRES NEWDELHI_CI NEWDELHI_DP NEWDELHI_POCI REUNION_LAT REUNION_LON REUNION_TYPE REUNION_WIND REUNION_PRES REUNION_TNUM REUNION_CI REUNION_RMW REUNION_R34_NE REUNION_R34_SE REUNION_R34_SW REUNION_R34_NW REUNION_R50_NE REUNION_R50_SE REUNION_R50_SW REUNION_R50_NW REUNION_R64_NE REUNION_R64_SE REUNION_R64_SW REUNION_R64_NW BOM_LAT BOM_LON BOM_TYPE BOM_WIND BOM_PRES BOM_TNUM BOM_CI BOM_RMW BOM_R34_NE BOM_R34_SE BOM_R34_SW BOM_R34_NW BOM_R50_NE BOM_R50_SE BOM_R50_SW BOM_R50_NW BOM_R64_NE BOM_R64_SE BOM_R64_SW BOM_R64_NW BOM_ROCI BOM_POCI BOM_EYE BOM_POS_METHOD BOM_PRES_METHOD NADI_LAT NADI_LON NADI_CAT NADI_WIND NADI_PRES WELLINGTON_LAT WELLINGTON_LON WELLINGTON_WIND WELLINGTON_PRES DS824_LAT DS824_LON DS824_STAGE DS824_WIND DS824_PRES TD9636_LAT TD9636_LON TD9636_STAGE TD9636_WIND TD9636_PRES TD9635_LAT TD9635_LON TD9635_WIND TD9635_PRES TD9635_ROCI NEUMANN_LAT NEUMANN_LON NEUMANN_CLASS NEUMANN_WIND NEUMANN_PRES MLC_LAT MLC_LON MLC_CLASS MLC_WIND MLC_PRES USA_GUST BOM_GUST BOM_GUST_PER REUNION_GUST REUNION_GUST_PER USA_SEAHGT USA_SEARAD_NE USA_SEARAD_SE USA_SEARAD_SW USA_SEARAD_NW STORM_SPEED STORM_DIR
1903263N21133 1903 47 WP MM NOT_NAMED 1903-09-19 16:00:00 NR 20.9000 133.000 main 1151 1151 __________O___ -1 20.9000 133.000 7 1 302
1903263N21133 1903 47 WP MM NOT_NAMED 1903-09-19 18:00:00 NR 20.9211 132.957 main 1151 1138 __________P___ -1 20.9211 132.957 7 2 302
1903263N21133 1903 47 WP MM NOT_NAMED 1903-09-19 21:00:00 NR 20.9698 132.878 main 1138 1125 __________P___ -1 20.9698 132.878 7 2 307
1903263N21133 1903 47 WP MM NOT_NAMED 1903-09-20 00:00:00 NR 21.0625 132.760 main 1125 1110 __________P___ -1 21.0625 132.760 7 4 312
1903263N21133 1903 47 WP MM NOT_NAMED 1903-09-20 03:00:00 NR 21.2255 132.578 main 1110 1098 __________P___ -1 21.2255 132.578 7 5 315
1903263N21133 1903 47 WP MM NOT_NAMED 1903-09-20 04:00:00 NR 21.3000 132.500 main 1098 1072 __________O___ -1 21.3000 132.500 7 7 316
1903263N21133 1903 47 WP MM NOT_NAMED 1903-09-20 06:00:00 NR 21.4823 132.314 main 1072 1035 __________P___ -1 21.4823 132.314 7 9 318
1903263N21133 1903 47 WP MM NOT_NAMED 1903-09-20 09:00:00 NR 21.8249 131.984 main 1035 986 __________P___ -1 21.8249 131.984 7 10 319
1903263N21133 1903 47 WP MM NOT_NAMED 1903-09-20 12:00:00 NR 22.2252 131.631 main 986 928 __________P___ -1 22.2252 131.631 7 10 323
1903263N21133 1903 47 WP MM NOT_NAMED 1903-09-20 15:00:00 NR 22.6550 131.298 main 928 917 __________P___ -1 22.6550 131.298 7 11 325
1903263N21133 1903 47 WP MM NOT_NAMED 1903-09-20 16:00:00 NR 22.8000 131.200 main 917 882 __________O___ -1 22.8000 131.200 7 10 328
1903263N21133 1903 47 WP MM NOT_NAMED 1903-09-20 18:00:00 NR 23.0560 131.023 main 882 837 __________P___ -1 23.0560 131.023 7 9 330
1903263N21133 1903 47 WP MM NOT_NAMED 1903-09-20 21:00:00 NR 23.4525 130.795 main 837 792 __________P___ -1 23.4525 130.795 7 9 336
1903263N21133 1903 47 WP MM NOT_NAMED 1903-09-21 00:00:00 NR 23.8749 130.622 main 792 748 __________P___ -1 23.8749 130.622 7 9 344
1903263N21133 1903 47 WP MM NOT_NAMED 1903-09-21 03:00:00 NR 24.3357 130.518 main 748 726 __________P___ -1 24.3357 130.518 7 10 350
1903263N21133 1903 47 WP MM NOT_NAMED 1903-09-21 04:00:00 NR 24.5000 130.500 main 726 681 __________O___ -1 24.5000 130.500 7 11 356
1903263N21133 1903 47 WP MM NOT_NAMED 1903-09-21 06:00:00 NR 24.8725 130.482 main 681 614 __________P___ -1 24.8725 130.482 7 12 1
1903263N21133 1903 47 WP MM NOT_NAMED 1903-09-21 09:00:00 NR 25.4699 130.518 main 614 547 __________P___ -1 25.4699 130.518 7 12 6
1903263N21133 1903 47 WP MM NOT_NAMED 1903-09-21 12:00:00 NR 26.0717 130.613 main 547 491 __________P___ -1 26.0717 130.613 7 12 10
1903263N21133 1903 47 WP MM NOT_NAMED 1903-09-21 15:00:00 NR 26.6311 130.749 main 491 468 __________P___ -1 26.6311 130.749 7 11 13
1903263N21133 1903 47 WP MM NOT_NAMED 1903-09-21 16:00:00 NR 26.8000 130.800 main 468 435 __________O___ -1 26.8000 130.800 3 10 17
1903263N21133 1903 47 WP MM NOT_NAMED 1903-09-21 18:00:00 NR 27.1047 130.907 main 435 392 __________P___ -1 27.1047 130.907 3 9 20
1903263N21133 1903 47 WP MM NOT_NAMED 1903-09-21 21:00:00 NR 27.4912 131.076 main 392 360 __________P___ -1 27.4912 131.076 3 8 24
1903263N21133 1903 47 WP MM NOT_NAMED 1903-09-22 00:00:00 NR 27.8165 131.255 main 361 330 __________P___ -1 27.8165 131.255 3 7 27
1903263N21133 1903 47 WP MM NOT_NAMED 1903-09-22 03:00:00 NR 28.1066 131.438 main 330 321 __________P___ -1 28.1066 131.438 3 7 29
1903263N21133 1903 47 WP MM NOT_NAMED 1903-09-22 04:00:00 NR 28.2000 131.500 main 321 __________O___ -1 28.2000 131.500 4 7 33

Digital Typhoon Data and Search

About IBTrACS Database

This database is a web-friendly format of International Best Track Archive for Climate Stewardship (IBTrACS), a global best track data archive curated by NOAA dating back to 1842.

Updated: 2021-10-21